sensor_id;sensor_type;location;lat;lon;timestamp;pressure;altitude;pressure_sealevel;temperature;humidity
60874;BME280;46715;40.642;-7.920;2023-04-09T00:00:22;96361.72;;;15.44;66.84
60874;BME280;46715;40.642;-7.920;2023-04-09T00:02:23;96360.75;;;15.40;66.59
60874;BME280;46715;40.642;-7.920;2023-04-09T00:04:25;96356.25;;;15.41;66.69
60874;BME280;46715;40.642;-7.920;2023-04-09T00:06:26;96356.75;;;15.43;66.97
60874;BME280;46715;40.642;-7.920;2023-04-09T00:08:27;96354.72;;;15.40;66.83
60874;BME280;46715;40.642;-7.920;2023-04-09T00:10:28;96352.66;;;15.37;66.87
60874;BME280;46715;40.642;-7.920;2023-04-09T00:12:29;96352.50;;;15.33;67.09
60874;BME280;46715;40.642;-7.920;2023-04-09T00:14:29;96347.84;;;15.30;66.87
60874;BME280;46715;40.642;-7.920;2023-04-09T00:16:30;96346.06;;;15.25;67.19
60874;BME280;46715;40.642;-7.920;2023-04-09T00:18:31;96356.41;;;15.22;67.55
60874;BME280;46715;40.642;-7.920;2023-04-09T00:20:32;96345.91;;;15.22;67.52
60874;BME280;46715;40.642;-7.920;2023-04-09T00:22:33;96337.53;;;15.20;67.23
60874;BME280;46715;40.642;-7.920;2023-04-09T00:24:34;96345.69;;;15.18;67.27
60874;BME280;46715;40.642;-7.920;2023-04-09T00:26:34;96351.25;;;15.16;67.66
60874;BME280;46715;40.642;-7.920;2023-04-09T00:28:35;96340.28;;;15.14;67.87
60874;BME280;46715;40.642;-7.920;2023-04-09T00:30:39;96343.16;;;15.13;67.85
60874;BME280;46715;40.642;-7.920;2023-04-09T00:32:40;96353.78;;;15.08;68.46
60874;BME280;46715;40.642;-7.920;2023-04-09T00:34:41;96352.63;;;15.00;68.71
60874;BME280;46715;40.642;-7.920;2023-04-09T00:36:41;96356.59;;;14.97;68.66
60874;BME280;46715;40.642;-7.920;2023-04-09T00:38:42;96356.72;;;14.92;69.10
60874;BME280;46715;40.642;-7.920;2023-04-09T00:40:43;96355.63;;;14.93;69.33
60874;BME280;46715;40.642;-7.920;2023-04-09T00:42:47;96359.06;;;14.94;69.56
60874;BME280;46715;40.642;-7.920;2023-04-09T00:44:48;96366.94;;;14.94;69.49
60874;BME280;46715;40.642;-7.920;2023-04-09T00:46:49;96361.38;;;14.95;69.33
60874;BME280;46715;40.642;-7.920;2023-04-09T00:48:49;96363.22;;;14.95;69.03
60874;BME280;46715;40.642;-7.920;2023-04-09T00:50:50;96357.41;;;14.98;69.00
60874;BME280;46715;40.642;-7.920;2023-04-09T00:52:51;96358.16;;;14.98;69.10
60874;BME280;46715;40.642;-7.920;2023-04-09T00:54:52;96360.19;;;15.02;68.77
60874;BME280;46715;40.642;-7.920;2023-04-09T00:56:55;96354.94;;;15.02;69.03
60874;BME280;46715;40.642;-7.920;2023-04-09T00:58:56;96354.94;;;15.02;68.75
60874;BME280;46715;40.642;-7.920;2023-04-09T01:00:57;96366.03;;;14.98;68.33
60874;BME280;46715;40.642;-7.920;2023-04-09T01:02:58;96353.69;;;14.99;68.48
60874;BME280;46715;40.642;-7.920;2023-04-09T01:04:59;96351.94;;;15.08;69.37
60874;BME280;46715;40.642;-7.920;2023-04-09T01:11:11;96354.38;;;14.91;69.52
60874;BME280;46715;40.642;-7.920;2023-04-09T01:13:17;96362.16;;;14.82;69.55
60874;BME280;46715;40.642;-7.920;2023-04-09T01:15:21;96354.47;;;14.72;68.96
60874;BME280;46715;40.642;-7.920;2023-04-09T01:17:34;96363.28;;;14.62;69.10
60874;BME280;46715;40.642;-7.920;2023-04-09T01:19:57;96356.75;;;14.59;69.60
60874;BME280;46715;40.642;-7.920;2023-04-09T01:22:01;96351.31;;;14.56;69.51
60874;BME280;46715;40.642;-7.920;2023-04-09T01:28:44;96356.91;;;14.35;69.98
60874;BME280;46715;40.642;-7.920;2023-04-09T01:30:48;96363.31;;;14.29;70.34
60874;BME280;46715;40.642;-7.920;2023-04-09T01:32:50;96360.47;;;14.25;70.63
60874;BME280;46715;40.642;-7.920;2023-04-09T01:34:51;96367.88;;;14.23;70.68
60874;BME280;46715;40.642;-7.920;2023-04-09T01:36:54;96363.97;;;14.21;70.75
60874;BME280;46715;40.642;-7.920;2023-04-09T01:38:56;96368.72;;;14.19;71.04
60874;BME280;46715;40.642;-7.920;2023-04-09T01:40:58;96366.38;;;14.17;71.13
60874;BME280;46715;40.642;-7.920;2023-04-09T01:42:59;96361.72;;;14.14;71.25
60874;BME280;46715;40.642;-7.920;2023-04-09T01:45:01;96370.94;;;14.11;71.58
60874;BME280;46715;40.642;-7.920;2023-04-09T01:47:02;96367.53;;;14.11;71.78
60874;BME280;46715;40.642;-7.920;2023-04-09T01:49:03;96371.50;;;14.08;71.91
60874;BME280;46715;40.642;-7.920;2023-04-09T01:51:04;96369.16;;;14.07;72.02
60874;BME280;46715;40.642;-7.920;2023-04-09T01:53:06;96368.19;;;14.03;72.04
60874;BME280;46715;40.642;-7.920;2023-04-09T01:55:07;96361.66;;;14.00;71.95
60874;BME280;46715;40.642;-7.920;2023-04-09T01:57:07;96364.09;;;13.96;71.62
60874;BME280;46715;40.642;-7.920;2023-04-09T01:59:08;96368.34;;;13.92;71.81
60874;BME280;46715;40.642;-7.920;2023-04-09T02:01:13;96364.22;;;13.86;72.30
60874;BME280;46715;40.642;-7.920;2023-04-09T02:03:17;96363.75;;;13.84;72.78
60874;BME280;46715;40.642;-7.920;2023-04-09T02:05:21;96361.69;;;13.81;73.06
60874;BME280;46715;40.642;-7.920;2023-04-09T02:07:29;96370.34;;;13.81;72.96
60874;BME280;46715;40.642;-7.920;2023-04-09T02:09:36;96367.44;;;13.83;73.57
60874;BME280;46715;40.642;-7.920;2023-04-09T02:11:41;96370.59;;;13.99;73.45
60874;BME280;46715;40.642;-7.920;2023-04-09T02:13:43;96377.63;;;14.04;72.90
60874;BME280;46715;40.642;-7.920;2023-04-09T02:15:44;96377.06;;;13.88;73.56
60874;BME280;46715;40.642;-7.920;2023-04-09T02:17:46;96377.28;;;13.72;73.89
60874;BME280;46715;40.642;-7.920;2023-04-09T02:19:47;96387.13;;;13.61;74.07
60874;BME280;46715;40.642;-7.920;2023-04-09T02:21:48;96376.97;;;13.55;74.40
60874;BME280;46715;40.642;-7.920;2023-04-09T02:23:48;96383.88;;;13.51;74.47
60874;BME280;46715;40.642;-7.920;2023-04-09T02:25:50;96385.22;;;13.48;75.15
60874;BME280;46715;40.642;-7.920;2023-04-09T02:27:51;96388.38;;;13.45;75.38
60874;BME280;46715;40.642;-7.920;2023-04-09T02:29:51;96388.66;;;13.43;75.04
60874;BME280;46715;40.642;-7.920;2023-04-09T02:31:52;96391.78;;;13.45;75.17
60874;BME280;46715;40.642;-7.920;2023-04-09T02:33:53;96402.47;;;13.49;76.07
60874;BME280;46715;40.642;-7.920;2023-04-09T02:35:54;96389.88;;;13.51;76.02
60874;BME280;46715;40.642;-7.920;2023-04-09T02:37:55;96391.44;;;13.52;75.96
60874;BME280;46715;40.642;-7.920;2023-04-09T02:39:57;96385.13;;;13.53;75.80
60874;BME280;46715;40.642;-7.920;2023-04-09T02:41:58;96392.44;;;13.56;75.63
60874;BME280;46715;40.642;-7.920;2023-04-09T02:44:00;96392.16;;;13.58;75.43
60874;BME280;46715;40.642;-7.920;2023-04-09T02:46:01;96397.16;;;13.54;75.47
60874;BME280;46715;40.642;-7.920;2023-04-09T02:48:03;96390.06;;;13.55;75.34
60874;BME280;46715;40.642;-7.920;2023-04-09T02:50:08;96389.03;;;13.56;75.25
60874;BME280;46715;40.642;-7.920;2023-04-09T02:52:12;96386.13;;;13.57;75.22
60874;BME280;46715;40.642;-7.920;2023-04-09T02:54:13;96388.75;;;13.57;75.46
60874;BME280;46715;40.642;-7.920;2023-04-09T02:56:14;96388.25;;;13.55;75.41
60874;BME280;46715;40.642;-7.920;2023-04-09T02:58:15;96397.44;;;13.53;75.43
60874;BME280;46715;40.642;-7.920;2023-04-09T03:00:16;96392.50;;;13.51;75.44
60874;BME280;46715;40.642;-7.920;2023-04-09T03:02:16;96393.28;;;13.52;75.50
60874;BME280;46715;40.642;-7.920;2023-04-09T03:04:17;96385.50;;;13.46;76.28
60874;BME280;46715;40.642;-7.920;2023-04-09T03:06:18;96378.63;;;13.51;76.03
60874;BME280;46715;40.642;-7.920;2023-04-09T03:08:18;96392.22;;;13.53;76.38
60874;BME280;46715;40.642;-7.920;2023-04-09T03:10:19;96394.44;;;13.64;76.10
60874;BME280;46715;40.642;-7.920;2023-04-09T03:12:21;96401.50;;;13.64;75.46
60874;BME280;46715;40.642;-7.920;2023-04-09T03:14:22;96396.88;;;13.56;75.37
60874;BME280;46715;40.642;-7.920;2023-04-09T03:16:23;96396.97;;;13.51;75.48
60874;BME280;46715;40.642;-7.920;2023-04-09T03:18:24;96398.06;;;13.44;75.57
60874;BME280;46715;40.642;-7.920;2023-04-09T03:20:25;96401.84;;;13.38;75.42
60874;BME280;46715;40.642;-7.920;2023-04-09T03:22:26;96396.63;;;13.33;75.97
60874;BME280;46715;40.642;-7.920;2023-04-09T03:24:27;96397.47;;;13.28;76.00
60874;BME280;46715;40.642;-7.920;2023-04-09T03:26:32;96396.97;;;13.26;76.57
60874;BME280;46715;40.642;-7.920;2023-04-09T03:28:37;96409.34;;;13.21;76.54
60874;BME280;46715;40.642;-7.920;2023-04-09T03:30:38;96405.72;;;13.17;76.51
60874;BME280;46715;40.642;-7.920;2023-04-09T03:32:40;96408.34;;;13.17;76.69
60874;BME280;46715;40.642;-7.920;2023-04-09T03:34:44;96400.25;;;13.13;76.78
60874;BME280;46715;40.642;-7.920;2023-04-09T03:36:44;96408.38;;;13.11;76.70
60874;BME280;46715;40.642;-7.920;2023-04-09T03:38:52;96399.00;;;13.10;76.69
60874;BME280;46715;40.642;-7.920;2023-04-09T03:41:01;96410.28;;;13.06;77.26
60874;BME280;46715;40.642;-7.920;2023-04-09T03:43:05;96402.22;;;13.02;77.33
60874;BME280;46715;40.642;-7.920;2023-04-09T03:45:10;96400.38;;;13.03;77.46
60874;BME280;46715;40.642;-7.920;2023-04-09T03:47:15;96399.59;;;13.02;77.97
60874;BME280;46715;40.642;-7.920;2023-04-09T03:49:16;96399.59;;;13.02;77.99
60874;BME280;46715;40.642;-7.920;2023-04-09T03:51:22;96398.03;;;13.01;78.11
60874;BME280;46715;40.642;-7.920;2023-04-09T03:53:28;96407.22;;;12.99;78.34
60874;BME280;46715;40.642;-7.920;2023-04-09T03:55:36;96402.56;;;12.95;78.36
60874;BME280;46715;40.642;-7.920;2023-04-09T03:57:40;96397.03;;;12.97;78.08
60874;BME280;46715;40.642;-7.920;2023-04-09T03:59:46;96397.03;;;12.97;78.08
60874;BME280;46715;40.642;-7.920;2023-04-09T04:01:51;96392.06;;;12.95;77.91
60874;BME280;46715;40.642;-7.920;2023-04-09T04:03:52;96388.94;;;12.93;77.76
60874;BME280;46715;40.642;-7.920;2023-04-09T04:05:59;96398.41;;;12.89;78.00
60874;BME280;46715;40.642;-7.920;2023-04-09T04:08:04;96401.03;;;12.89;78.15
60874;BME280;46715;40.642;-7.920;2023-04-09T04:10:05;96395.88;;;12.84;78.04
60874;BME280;46715;40.642;-7.920;2023-04-09T04:12:06;96406.88;;;12.81;78.32
60874;BME280;46715;40.642;-7.920;2023-04-09T04:14:32;96398.56;;;12.74;78.25
60874;BME280;46715;40.642;-7.920;2023-04-09T04:16:40;96401.75;;;12.71;78.54
60874;BME280;46715;40.642;-7.920;2023-04-09T04:18:41;96397.34;;;12.66;78.52
60874;BME280;46715;40.642;-7.920;2023-04-09T04:20:42;96400.47;;;12.68;78.51
60874;BME280;46715;40.642;-7.920;2023-04-09T04:22:46;96400.72;;;12.67;79.02
60874;BME280;46715;40.642;-7.920;2023-04-09T04:24:47;96395.53;;;12.61;78.81
60874;BME280;46715;40.642;-7.920;2023-04-09T04:26:52;96397.16;;;12.57;78.77
60874;BME280;46715;40.642;-7.920;2023-04-09T04:28:55;96393.00;;;12.56;78.83
60874;BME280;46715;40.642;-7.920;2023-04-09T04:31:10;96394.56;;;12.82;79.35
60874;BME280;46715;40.642;-7.920;2023-04-09T04:33:12;96398.03;;;13.01;78.78
60874;BME280;46715;40.642;-7.920;2023-04-09T04:35:21;96385.56;;;13.41;77.09
60874;BME280;46715;40.642;-7.920;2023-04-09T04:37:26;96394.91;;;13.67;75.66
60874;BME280;46715;40.642;-7.920;2023-04-09T04:39:31;96399.00;;;13.73;74.92
60874;BME280;46715;40.642;-7.920;2023-04-09T04:41:36;96402.06;;;13.61;74.92
60874;BME280;46715;40.642;-7.920;2023-04-09T04:43:42;96406.38;;;13.52;75.30
60874;BME280;46715;40.642;-7.920;2023-04-09T04:45:52;96405.94;;;13.44;74.64
60874;BME280;46715;40.642;-7.920;2023-04-09T04:47:55;96405.59;;;13.27;75.15
60874;BME280;46715;40.642;-7.920;2023-04-09T04:50:00;96397.44;;;13.09;75.76
60874;BME280;46715;40.642;-7.920;2023-04-09T04:52:00;96397.88;;;12.92;75.98
60874;BME280;46715;40.642;-7.920;2023-04-09T04:54:04;96396.97;;;12.78;76.69
60874;BME280;46715;40.642;-7.920;2023-04-09T04:56:05;96398.41;;;12.65;77.05
60874;BME280;46715;40.642;-7.920;2023-04-09T04:58:05;96398.72;;;12.58;77.26
60874;BME280;46715;40.642;-7.920;2023-04-09T05:00:15;96401.34;;;12.58;78.01
60874;BME280;46715;40.642;-7.920;2023-04-09T05:02:16;96406.75;;;12.67;78.02
60874;BME280;46715;40.642;-7.920;2023-04-09T05:04:37;96406.59;;;12.53;78.98
60874;BME280;46715;40.642;-7.920;2023-04-09T05:06:38;96422.09;;;12.50;78.87
60874;BME280;46715;40.642;-7.920;2023-04-09T05:08:45;96421.94;;;12.36;79.15
60874;BME280;46715;40.642;-7.920;2023-04-09T05:10:46;96422.25;;;12.29;79.59
60874;BME280;46715;40.642;-7.920;2023-04-09T05:12:47;96420.69;;;12.23;79.91
60874;BME280;46715;40.642;-7.920;2023-04-09T05:14:55;96420.25;;;12.16;80.26
60874;BME280;46715;40.642;-7.920;2023-04-09T05:16:56;96426.78;;;12.13;80.63
60874;BME280;46715;40.642;-7.920;2023-04-09T05:19:02;96432.25;;;12.17;80.88
60874;BME280;46715;40.642;-7.920;2023-04-09T05:21:03;96438.81;;;12.14;80.54
60874;BME280;46715;40.642;-7.920;2023-04-09T05:23:05;96442.47;;;12.13;80.46
60874;BME280;46715;40.642;-7.920;2023-04-09T05:25:16;96456.34;;;12.14;80.65
60874;BME280;46715;40.642;-7.920;2023-04-09T05:27:17;96460.28;;;12.11;80.98
60874;BME280;46715;40.642;-7.920;2023-04-09T05:29:20;96458.22;;;12.08;82.56
60874;BME280;46715;40.642;-7.920;2023-04-09T05:31:21;96454.28;;;12.10;81.91
60874;BME280;46715;40.642;-7.920;2023-04-09T05:33:30;96460.25;;;12.16;81.81
60874;BME280;46715;40.642;-7.920;2023-04-09T05:35:41;96452.63;;;12.20;82.07
60874;BME280;46715;40.642;-7.920;2023-04-09T05:37:42;96448.69;;;12.22;82.05
60874;BME280;46715;40.642;-7.920;2023-04-09T05:39:44;96454.16;;;12.26;81.50
60874;BME280;46715;40.642;-7.920;2023-04-09T05:41:45;96454.66;;;12.28;81.43
60874;BME280;46715;40.642;-7.920;2023-04-09T05:43:54;96441.38;;;12.24;82.27
60874;BME280;46715;40.642;-7.920;2023-04-09T05:45:56;96456.16;;;12.39;81.42
60874;BME280;46715;40.642;-7.920;2023-04-09T05:47:57;96454.84;;;12.37;80.93
60874;BME280;46715;40.642;-7.920;2023-04-09T05:49:57;96460.09;;;12.37;80.50
60874;BME280;46715;40.642;-7.920;2023-04-09T05:51:58;96456.47;;;12.33;80.29
60874;BME280;46715;40.642;-7.920;2023-04-09T05:54:02;96459.34;;;12.31;80.31
60874;BME280;46715;40.642;-7.920;2023-04-09T05:56:13;96457.06;;;12.24;80.03
60874;BME280;46715;40.642;-7.920;2023-04-09T05:58:21;96463.59;;;12.22;79.55
60874;BME280;46715;40.642;-7.920;2023-04-09T06:00:22;96465.97;;;12.18;80.13
60874;BME280;46715;40.642;-7.920;2023-04-09T06:02:24;96467.56;;;12.14;79.92
60874;BME280;46715;40.642;-7.920;2023-04-09T06:04:25;96462.88;;;12.11;80.55
60874;BME280;46715;40.642;-7.920;2023-04-09T06:06:25;96462.88;;;12.11;80.50
60874;BME280;46715;40.642;-7.920;2023-04-09T06:08:26;96471.00;;;12.09;80.27
60874;BME280;46715;40.642;-7.920;2023-04-09T06:10:27;96473.09;;;12.07;80.68
60874;BME280;46715;40.642;-7.920;2023-04-09T06:12:28;96478.56;;;12.11;80.74
60874;BME280;46715;40.642;-7.920;2023-04-09T06:14:29;96481.19;;;12.11;80.67
60874;BME280;46715;40.642;-7.920;2023-04-09T06:16:32;96485.38;;;12.12;79.98
60874;BME280;46715;40.642;-7.920;2023-04-09T06:18:33;96490.03;;;12.15;80.05
60874;BME280;46715;40.642;-7.920;2023-04-09T06:20:34;96489.22;;;12.20;79.76
60874;BME280;46715;40.642;-7.920;2023-04-09T06:22:34;96489.47;;;12.23;80.16
60874;BME280;46715;40.642;-7.920;2023-04-09T06:24:35;96498.56;;;12.31;79.83
60874;BME280;46715;40.642;-7.920;2023-04-09T06:26:36;96500.88;;;12.38;79.83
60874;BME280;46715;40.642;-7.920;2023-04-09T06:28:37;96507.59;;;12.49;79.28
60874;BME280;46715;40.642;-7.920;2023-04-09T06:30:37;96501.78;;;12.57;78.98
60874;BME280;46715;40.642;-7.920;2023-04-09T06:32:38;96506.50;;;12.60;78.66
60874;BME280;46715;40.642;-7.920;2023-04-09T06:34:38;96509.75;;;12.76;78.25
60874;BME280;46715;40.642;-7.920;2023-04-09T06:36:41;96516.41;;;12.93;77.75
60874;BME280;46715;40.642;-7.920;2023-04-09T06:38:43;96519.13;;;13.12;77.20
60874;BME280;46715;40.642;-7.920;2023-04-09T06:40:43;96512.69;;;13.28;76.88
60874;BME280;46715;40.642;-7.920;2023-04-09T06:42:44;96514.09;;;13.45;76.17
60874;BME280;46715;40.642;-7.920;2023-04-09T06:44:55;96518.78;;;13.72;75.40
60874;BME280;46715;40.642;-7.920;2023-04-09T06:46:56;96517.41;;;13.99;74.43
60874;BME280;46715;40.642;-7.920;2023-04-09T06:48:56;96523.03;;;14.30;73.23
60874;BME280;46715;40.642;-7.920;2023-04-09T06:50:57;96521.38;;;14.54;72.05
60874;BME280;46715;40.642;-7.920;2023-04-09T06:52:58;96526.75;;;14.81;71.19
60874;BME280;46715;40.642;-7.920;2023-04-09T06:54:58;96532.16;;;15.04;70.08
60874;BME280;46715;40.642;-7.920;2023-04-09T06:56:59;96534.72;;;15.23;68.97
60874;BME280;46715;40.642;-7.920;2023-04-09T06:58:59;96535.34;;;15.48;68.59
60874;BME280;46715;40.642;-7.920;2023-04-09T07:01:01;96527.56;;;15.71;67.17
60874;BME280;46715;40.642;-7.920;2023-04-09T07:03:02;96539.06;;;15.89;66.98
60874;BME280;46715;40.642;-7.920;2023-04-09T07:05:04;96538.81;;;16.13;66.34
60874;BME280;46715;40.642;-7.920;2023-04-09T07:07:04;96544.09;;;16.49;65.63
60874;BME280;46715;40.642;-7.920;2023-04-09T07:09:06;96548.00;;;16.75;64.35
60874;BME280;46715;40.642;-7.920;2023-04-09T07:11:06;96548.50;;;16.99;63.58
60874;BME280;46715;40.642;-7.920;2023-04-09T07:13:07;96548.50;;;17.31;62.90
60874;BME280;46715;40.642;-7.920;2023-04-09T07:15:08;96554.69;;;17.58;62.51
60874;BME280;46715;40.642;-7.920;2023-04-09T07:17:09;96555.03;;;17.82;61.65
60874;BME280;46715;40.642;-7.920;2023-04-09T07:19:09;96553.66;;;17.85;60.27
60874;BME280;46715;40.642;-7.920;2023-04-09T07:21:10;96557.63;;;17.96;60.40
60874;BME280;46715;40.642;-7.920;2023-04-09T07:23:11;96547.09;;;18.14;59.90
60874;BME280;46715;40.642;-7.920;2023-04-09T07:25:12;96548.50;;;18.37;59.87
60874;BME280;46715;40.642;-7.920;2023-04-09T07:27:12;96549.28;;;18.55;58.94
60874;BME280;46715;40.642;-7.920;2023-04-09T07:29:13;96553.16;;;18.67;58.76
60874;BME280;46715;40.642;-7.920;2023-04-09T07:31:13;96553.16;;;18.84;58.46
60874;BME280;46715;40.642;-7.920;2023-04-09T07:33:14;96551.44;;;19.06;55.42
60874;BME280;46715;40.642;-7.920;2023-04-09T07:35:15;96549.56;;;19.06;55.69
60874;BME280;46715;40.642;-7.920;2023-04-09T07:37:15;96549.69;;;19.19;55.73
60874;BME280;46715;40.642;-7.920;2023-04-09T07:39:16;96554.31;;;19.39;54.69
60874;BME280;46715;40.642;-7.920;2023-04-09T07:41:17;96554.69;;;19.59;54.25
60874;BME280;46715;40.642;-7.920;2023-04-09T07:43:18;96552.91;;;19.72;54.10
60874;BME280;46715;40.642;-7.920;2023-04-09T07:45:19;96553.81;;;20.36;52.77
60874;BME280;46715;40.642;-7.920;2023-04-09T07:47:20;96557.28;;;21.37;51.30
60874;BME280;46715;40.642;-7.920;2023-04-09T07:49:20;96556.03;;;22.45;47.82
60874;BME280;46715;40.642;-7.920;2023-04-09T07:51:21;96551.03;;;23.45;45.03
60874;BME280;46715;40.642;-7.920;2023-04-09T07:53:21;96552.25;;;24.34;43.05
60874;BME280;46715;40.642;-7.920;2023-04-09T07:55:22;96552.06;;;25.25;39.19
60874;BME280;46715;40.642;-7.920;2023-04-09T07:57:24;96553.50;;;25.65;38.63
60874;BME280;46715;40.642;-7.920;2023-04-09T07:59:25;96552.78;;;26.22;38.65
60874;BME280;46715;40.642;-7.920;2023-04-09T08:01:27;96550.28;;;26.67;37.63
60874;BME280;46715;40.642;-7.920;2023-04-09T08:03:28;96548.38;;;27.01;36.45
60874;BME280;46715;40.642;-7.920;2023-04-09T08:05:28;96553.69;;;27.39;35.76
60874;BME280;46715;40.642;-7.920;2023-04-09T08:07:29;96553.72;;;27.98;35.16
60874;BME280;46715;40.642;-7.920;2023-04-09T08:09:30;96560.16;;;28.56;34.59
60874;BME280;46715;40.642;-7.920;2023-04-09T08:11:31;96567.59;;;29.06;33.60
60874;BME280;46715;40.642;-7.920;2023-04-09T08:13:32;96564.59;;;29.30;31.85
60874;BME280;46715;40.642;-7.920;2023-04-09T08:15:33;96567.66;;;29.50;32.02
60874;BME280;46715;40.642;-7.920;2023-04-09T08:17:34;96569.19;;;29.69;31.19
60874;BME280;46715;40.642;-7.920;2023-04-09T08:19:36;96568.41;;;30.01;30.98
60874;BME280;46715;40.642;-7.920;2023-04-09T08:21:37;96574.19;;;29.96;30.52
60874;BME280;46715;40.642;-7.920;2023-04-09T08:23:38;96564.88;;;30.33;30.59
60874;BME280;46715;40.642;-7.920;2023-04-09T08:25:40;96564.72;;;30.76;29.98
60874;BME280;46715;40.642;-7.920;2023-04-09T08:27:41;96573.19;;;30.74;29.04
60874;BME280;46715;40.642;-7.920;2023-04-09T08:29:42;96578.38;;;30.07;29.60
60874;BME280;46715;40.642;-7.920;2023-04-09T08:31:43;96584.56;;;29.32;30.75
60874;BME280;46715;40.642;-7.920;2023-04-09T08:33:43;96580.69;;;30.05;29.52
60874;BME280;46715;40.642;-7.920;2023-04-09T08:35:44;96582.53;;;30.48;29.58
60874;BME280;46715;40.642;-7.920;2023-04-09T08:37:45;96580.22;;;30.43;28.93
60874;BME280;46715;40.642;-7.920;2023-04-09T08:39:46;96584.63;;;30.93;28.66
60874;BME280;46715;40.642;-7.920;2023-04-09T08:41:46;96577.16;;;30.45;28.85
60874;BME280;46715;40.642;-7.920;2023-04-09T08:43:47;96581.03;;;30.25;29.33
60874;BME280;46715;40.642;-7.920;2023-04-09T08:45:48;96584.06;;;30.49;29.08
60874;BME280;46715;40.642;-7.920;2023-04-09T08:47:49;96583.25;;;31.30;27.54
60874;BME280;46715;40.642;-7.920;2023-04-09T08:49:51;96582.09;;;31.35;26.82
60874;BME280;46715;40.642;-7.920;2023-04-09T08:51:52;96589.59;;;31.58;26.50
60874;BME280;46715;40.642;-7.920;2023-04-09T08:53:59;96580.00;;;31.57;26.61
60874;BME280;46715;40.642;-7.920;2023-04-09T08:56:00;96588.38;;;31.70;26.75
60874;BME280;46715;40.642;-7.920;2023-04-09T08:58:04;96589.84;;;31.29;27.00
60874;BME280;46715;40.642;-7.920;2023-04-09T09:00:06;96597.88;;;31.33;27.20
60874;BME280;46715;40.642;-7.920;2023-04-09T09:02:09;96589.78;;;31.36;26.88
60874;BME280;46715;40.642;-7.920;2023-04-09T09:04:10;96580.72;;;31.65;26.64
60874;BME280;46715;40.642;-7.920;2023-04-09T09:06:19;96586.94;;;32.00;26.59
60874;BME280;46715;40.642;-7.920;2023-04-09T09:08:24;96586.31;;;32.26;26.50
60874;BME280;46715;40.642;-7.920;2023-04-09T09:10:39;96598.38;;;31.69;26.64
60874;BME280;46715;40.642;-7.920;2023-04-09T09:12:40;96587.47;;;32.60;26.40
60874;BME280;46715;40.642;-7.920;2023-04-09T09:14:42;96593.19;;;32.96;25.78
60874;BME280;46715;40.642;-7.920;2023-04-09T09:16:44;96591.00;;;32.57;25.61
60874;BME280;46715;40.642;-7.920;2023-04-09T09:19:03;96595.31;;;32.82;25.98
60874;BME280;46715;40.642;-7.920;2023-04-09T09:21:13;96596.75;;;32.90;25.83
60874;BME280;46715;40.642;-7.920;2023-04-09T09:23:15;96597.72;;;33.58;24.39
60874;BME280;46715;40.642;-7.920;2023-04-09T09:25:16;96595.81;;;33.82;24.36
60874;BME280;46715;40.642;-7.920;2023-04-09T09:27:36;96592.22;;;33.89;24.05
60874;BME280;46715;40.642;-7.920;2023-04-09T09:29:41;96594.66;;;34.03;23.88
60874;BME280;46715;40.642;-7.920;2023-04-09T09:31:45;96594.31;;;33.77;25.01
60874;BME280;46715;40.642;-7.920;2023-04-09T09:33:47;96586.25;;;33.26;23.94
60874;BME280;46715;40.642;-7.920;2023-04-09T09:35:51;96586.31;;;33.19;24.11
60874;BME280;46715;40.642;-7.920;2023-04-09T09:38:00;96583.91;;;33.52;24.01
60874;BME280;46715;40.642;-7.920;2023-04-09T09:40:02;96583.97;;;33.72;22.82
60874;BME280;46715;40.642;-7.920;2023-04-09T09:42:06;96585.97;;;33.92;23.34
60874;BME280;46715;40.642;-7.920;2023-04-09T09:44:08;96583.84;;;34.03;23.32
60874;BME280;46715;40.642;-7.920;2023-04-09T09:46:09;96582.44;;;34.15;21.63
60874;BME280;46715;40.642;-7.920;2023-04-09T09:48:10;96589.59;;;33.58;22.98
60874;BME280;46715;40.642;-7.920;2023-04-09T09:50:12;96588.59;;;33.48;23.69
60874;BME280;46715;40.642;-7.920;2023-04-09T09:52:12;96588.53;;;33.28;24.43
60874;BME280;46715;40.642;-7.920;2023-04-09T09:54:14;96586.72;;;33.69;23.80
60874;BME280;46715;40.642;-7.920;2023-04-09T09:56:18;96583.59;;;33.70;23.61
60874;BME280;46715;40.642;-7.920;2023-04-09T09:58:25;96584.22;;;34.25;22.34
60874;BME280;46715;40.642;-7.920;2023-04-09T10:00:26;96590.41;;;34.46;22.87
60874;BME280;46715;40.642;-7.920;2023-04-09T10:02:29;96586.78;;;33.41;23.49
60874;BME280;46715;40.642;-7.920;2023-04-09T10:04:32;96590.41;;;33.31;23.74
60874;BME280;46715;40.642;-7.920;2023-04-09T10:06:34;96598.00;;;33.12;24.62
60874;BME280;46715;40.642;-7.920;2023-04-09T10:08:37;96585.28;;;32.17;23.69
60874;BME280;46715;40.642;-7.920;2023-04-09T10:10:40;96597.88;;;32.61;24.28
60874;BME280;46715;40.642;-7.920;2023-04-09T10:12:42;96591.00;;;33.15;24.09
60874;BME280;46715;40.642;-7.920;2023-04-09T10:14:44;96584.84;;;33.65;22.96
60874;BME280;46715;40.642;-7.920;2023-04-09T10:16:45;96593.50;;;33.57;24.49
60874;BME280;46715;40.642;-7.920;2023-04-09T10:18:46;96597.38;;;34.03;24.23
60874;BME280;46715;40.642;-7.920;2023-04-09T10:20:53;96600.94;;;33.25;25.40
60874;BME280;46715;40.642;-7.920;2023-04-09T10:22:56;96597.78;;;33.00;25.05
60874;BME280;46715;40.642;-7.920;2023-04-09T10:24:58;96594.06;;;32.90;24.87
60874;BME280;46715;40.642;-7.920;2023-04-09T10:27:08;96596.00;;;33.68;24.35
60874;BME280;46715;40.642;-7.920;2023-04-09T10:29:10;96591.09;;;33.08;24.88
60874;BME280;46715;40.642;-7.920;2023-04-09T10:31:13;96601.22;;;33.31;24.84
60874;BME280;46715;40.642;-7.920;2023-04-09T10:33:15;96603.81;;;33.89;24.32
60874;BME280;46715;40.642;-7.920;2023-04-09T10:35:23;96606.41;;;33.18;24.42
60874;BME280;46715;40.642;-7.920;2023-04-09T10:37:25;96603.16;;;32.69;24.79
60874;BME280;46715;40.642;-7.920;2023-04-09T10:39:26;96602.66;;;32.46;24.96
60874;BME280;46715;40.642;-7.920;2023-04-09T10:41:29;96601.72;;;32.26;25.25
60874;BME280;46715;40.642;-7.920;2023-04-09T10:43:30;96605.16;;;31.88;25.82
60874;BME280;46715;40.642;-7.920;2023-04-09T10:45:39;96612.31;;;31.04;25.68
60874;BME280;46715;40.642;-7.920;2023-04-09T10:47:41;96614.97;;;31.01;26.12
60874;BME280;46715;40.642;-7.920;2023-04-09T10:49:43;96623.31;;;29.82;26.92